createdAt,value
2023-03-17T00:03:56.419Z,56.46
2023-03-17T00:08:59.238Z,56.37
2023-03-17T00:14:03.233Z,55.83
2023-03-17T00:19:07.748Z,55.90
2023-03-17T00:24:14.724Z,55.67
2023-03-17T00:29:17.860Z,55.78
2023-03-17T00:34:22.270Z,55.62
2023-03-17T00:39:25.373Z,54.99
2023-03-17T00:44:30.379Z,54.67
2023-03-17T00:49:34.731Z,54.73
2023-03-17T00:54:37.595Z,54.93
2023-03-17T00:59:43.878Z,55.51
2023-03-17T01:04:59.579Z,55.10
2023-03-17T01:10:15.815Z,54.90
2023-03-17T01:15:19.729Z,54.93
2023-03-17T01:20:25.611Z,54.95
2023-03-17T01:25:29.055Z,54.78
2023-03-17T01:30:34.293Z,54.90
2023-03-17T01:35:38.851Z,54.91
2023-03-17T01:40:45.225Z,54.70
2023-03-17T01:46:17.175Z,55.10
2023-03-17T01:51:29.481Z,55.75
2023-03-17T01:56:32.409Z,56.07
2023-03-17T02:01:39.325Z,55.88
2023-03-17T02:06:57.348Z,56.05
2023-03-17T02:12:02.606Z,55.78
2023-03-17T02:17:05.444Z,55.43
2023-03-17T02:22:10.157Z,55.03
2023-03-17T02:27:15.823Z,54.89
2023-03-17T02:32:19.611Z,54.28
2023-03-17T02:37:23.779Z,54.48
2023-03-17T02:42:28.291Z,55.00
2023-03-17T02:47:34.667Z,55.22
2023-03-17T02:52:38.936Z,55.43
2023-03-17T02:57:41.933Z,55.90
2023-03-17T03:02:44.821Z,56.48
2023-03-17T03:07:49.001Z,57.21
2023-03-17T03:12:51.997Z,57.59
2023-03-17T03:17:54.881Z,57.93
2023-03-17T03:22:59.298Z,57.87
2023-03-17T03:28:02.081Z,57.23
2023-03-17T03:33:05.622Z,56.99
2023-03-17T03:38:10.120Z,57.68
2023-03-17T03:43:23.017Z,57.28
2023-03-17T03:48:26.641Z,57.37
2023-03-17T03:53:31.123Z,57.33
2023-03-17T03:58:33.948Z,57.20
2023-03-17T04:03:37.225Z,57.30
2023-03-17T04:08:41.421Z,57.72
2023-03-17T04:13:44.184Z,58.30
2023-03-17T04:18:47.272Z,58.14
2023-03-17T04:23:52.157Z,57.93
2023-03-17T04:28:55.436Z,57.64
2023-03-17T04:33:58.193Z,57.90
2023-03-17T04:39:02.632Z,57.95
2023-03-17T04:44:05.919Z,57.96
2023-03-17T04:49:09.487Z,58.16
2023-03-17T04:54:13.797Z,57.82
2023-03-17T04:59:17.152Z,57.63
2023-03-17T05:04:31.110Z,57.44
2023-03-17T05:09:36.361Z,57.53
2023-03-17T05:14:39.345Z,57.30
2023-03-17T05:19:42.488Z,57.35
2023-03-17T05:24:47.619Z,57.40
2023-03-17T05:29:50.485Z,57.71
2023-03-17T05:34:53.290Z,57.45
2023-03-17T05:39:57.641Z,57.63
2023-03-17T05:45:00.561Z,57.53
2023-03-17T05:50:04.726Z,57.92
2023-03-17T05:55:09.999Z,58.48
2023-03-17T06:00:16.178Z,58.23
2023-03-17T06:05:19.164Z,58.09
2023-03-17T06:10:23.663Z,58.13
2023-03-17T06:15:27.005Z,57.79
2023-03-17T06:20:29.826Z,57.76
2023-03-17T06:25:34.616Z,57.73
2023-03-17T06:30:40.550Z,57.26
2023-03-17T06:35:43.572Z,56.68
2023-03-17T06:40:47.911Z,56.16
2023-03-17T06:45:51.532Z,55.24
2023-03-17T06:50:54.290Z,54.62
2023-03-17T06:55:58.703Z,54.05
2023-03-17T07:01:01.481Z,52.97
2023-03-17T07:06:04.516Z,53.11
2023-03-17T07:11:09.399Z,53.13
2023-03-17T07:16:16.875Z,52.79
2023-03-17T07:21:19.778Z,51.98
2023-03-17T07:26:24.552Z,51.51
2023-03-17T07:31:28.276Z,51.87
2023-03-17T07:36:31.474Z,51.30
2023-03-17T07:41:36.666Z,50.22
2023-03-17T07:46:39.595Z,49.22
2023-03-17T07:51:43.252Z,49.26
2023-03-17T07:56:47.412Z,48.47
2023-03-17T08:01:50.581Z,48.30
2023-03-17T08:06:54.550Z,47.04
2023-03-17T08:11:58.980Z,46.85
2023-03-17T08:17:02.564Z,47.05
2023-03-17T08:22:05.836Z,46.74
2023-03-17T08:27:10.254Z,45.98
2023-03-17T08:32:13.543Z,45.44
2023-03-17T08:37:16.909Z,45.29
2023-03-17T08:42:21.534Z,45.02
2023-03-17T08:47:24.957Z,45.20
2023-03-17T08:52:28.814Z,43.96
2023-03-17T08:57:33.529Z,43.69
2023-03-17T09:02:36.290Z,42.94
2023-03-17T09:07:39.154Z,43.46
2023-03-17T09:12:43.490Z,43.27
2023-03-17T09:17:46.210Z,42.91
2023-03-17T09:22:49.370Z,42.85
2023-03-17T09:27:53.477Z,42.66
2023-03-17T09:32:56.207Z,42.35
2023-03-17T09:37:59.124Z,42.96
2023-03-17T09:43:13.750Z,42.36
2023-03-17T09:48:32.481Z,41.50
2023-03-17T09:53:37.590Z,41.33
2023-03-17T09:58:47.284Z,40.68
2023-03-17T10:03:51.578Z,41.04
2023-03-17T10:09:01.645Z,39.70
2023-03-17T10:14:18.988Z,40.01
2023-03-17T10:19:28.110Z,39.70
2023-03-17T10:24:33.664Z,39.27
2023-03-17T10:29:38.338Z,39.09
2023-03-17T10:34:42.885Z,38.39
2023-03-17T10:39:47.862Z,37.28
2023-03-17T10:44:56.214Z,37.74
2023-03-17T10:50:02.496Z,35.59
2023-03-17T10:55:07.478Z,34.97
2023-03-17T11:00:19.912Z,36.11
2023-03-17T11:05:24.789Z,35.85
2023-03-17T11:10:30.113Z,35.21
2023-03-17T11:15:37.842Z,34.46
2023-03-17T11:20:46.958Z,32.16
2023-03-17T11:25:57.508Z,33.05
2023-03-17T11:31:09.421Z,32.04
2023-03-17T11:36:27.004Z,32.59
2023-03-17T11:41:51.781Z,32.14
2023-03-17T11:47:04.126Z,34.01
2023-03-17T11:52:19.686Z,33.88
2023-03-17T11:57:28.132Z,35.07
2023-03-17T12:02:39.479Z,33.71
2023-03-17T12:07:46.690Z,33.24
2023-03-17T12:12:54.114Z,32.63
2023-03-17T12:18:03.324Z,34.65
2023-03-17T12:23:12.630Z,34.23
2023-03-17T12:28:17.986Z,34.39
2023-03-17T12:33:29.464Z,34.14
2023-03-17T12:38:39.006Z,33.07
2023-03-17T12:43:50.260Z,32.20
2023-03-17T12:49:27.509Z,31.97
2023-03-17T12:54:33.057Z,32.92
2023-03-17T12:59:37.616Z,33.35
2023-03-17T13:04:50.399Z,32.93
2023-03-17T13:10:19.359Z,32.31
2023-03-17T13:15:48.722Z,33.40
2023-03-17T13:21:11.654Z,32.87
2023-03-17T13:26:16.280Z,33.55
2023-03-17T13:31:37.720Z,33.45
2023-03-17T13:36:53.707Z,33.52
2023-03-17T13:42:17.588Z,33.31
2023-03-17T13:47:34.747Z,33.66
2023-03-17T13:52:44.242Z,34.09
2023-03-17T13:57:57.234Z,34.73
2023-03-17T14:03:04.626Z,34.25
2023-03-17T14:08:18.294Z,35.01
2023-03-17T14:13:24.536Z,35.00
2023-03-17T14:18:32.094Z,36.22
2023-03-17T14:23:36.587Z,37.35
2023-03-17T14:28:39.650Z,36.84
2023-03-17T14:33:43.008Z,37.22
2023-03-17T14:38:49.883Z,38.06
2023-03-17T14:43:56.145Z,39.21
2023-03-17T14:49:02.277Z,39.99
2023-03-17T14:54:13.881Z,40.18
2023-03-17T14:59:21.762Z,40.89
2023-03-17T15:04:26.321Z,40.77
2023-03-17T15:09:35.372Z,40.64
2023-03-17T15:14:40.585Z,40.54
2023-03-17T15:19:46.307Z,40.77
2023-03-17T15:25:00.948Z,40.65
2023-03-17T15:30:04.190Z,40.90
2023-03-17T15:35:08.728Z,41.49
2023-03-17T15:40:15.615Z,41.56
2023-03-17T15:45:18.699Z,42.41
2023-03-17T15:50:24.869Z,42.12
2023-03-17T15:55:30.618Z,42.21
2023-03-17T16:00:34.647Z,41.79
2023-03-17T16:05:37.567Z,41.93
2023-03-17T16:10:41.760Z,42.20
2023-03-17T16:15:51.761Z,41.81
2023-03-17T16:20:55.392Z,42.14
2023-03-17T16:26:13.682Z,42.78
2023-03-17T16:31:23.825Z,43.00
2023-03-17T16:36:27.073Z,43.44
2023-03-17T16:41:35.838Z,43.39
2023-03-17T16:46:44.689Z,44.34
2023-03-17T16:51:49.450Z,43.93
2023-03-17T16:56:54.624Z,43.91
2023-03-17T17:01:57.418Z,43.92
2023-03-17T17:07:00.222Z,43.84
2023-03-17T17:12:04.571Z,43.97
2023-03-17T17:17:07.506Z,44.49
2023-03-17T17:22:12.468Z,44.31
2023-03-17T17:27:16.647Z,44.41
2023-03-17T17:32:19.665Z,44.63
2023-03-17T17:37:22.506Z,45.04
2023-03-17T17:42:26.707Z,44.98
2023-03-17T17:47:32.130Z,44.91
2023-03-17T17:52:35.273Z,45.12
2023-03-17T17:57:39.427Z,45.20
2023-03-17T18:02:42.275Z,45.69
2023-03-17T18:07:45.158Z,47.81
2023-03-17T18:12:49.330Z,50.81
2023-03-17T18:17:52.529Z,49.24
2023-03-17T18:22:55.781Z,49.66
2023-03-17T18:28:01.296Z,48.36
2023-03-17T18:33:09.666Z,47.96
2023-03-17T18:38:12.454Z,48.03
2023-03-17T18:43:16.587Z,47.62
2023-03-17T18:48:19.384Z,47.37
2023-03-17T18:53:22.286Z,47.48
2023-03-17T18:58:27.243Z,47.65
2023-03-17T19:03:32.089Z,47.82
2023-03-17T19:08:34.976Z,48.12
2023-03-17T19:13:39.628Z,49.19
2023-03-17T19:18:42.832Z,47.89
2023-03-17T19:23:45.665Z,47.30
2023-03-17T19:28:49.831Z,47.32
2023-03-17T19:33:52.659Z,47.68
2023-03-17T19:38:56.274Z,47.15
2023-03-17T19:44:00.624Z,47.20
2023-03-17T19:49:04.664Z,46.77
2023-03-17T19:54:08.030Z,47.27
2023-03-17T19:59:12.257Z,47.35
2023-03-17T20:04:19.340Z,47.37
2023-03-17T20:09:22.931Z,47.27
2023-03-17T20:14:27.081Z,47.86
2023-03-17T20:19:30.146Z,47.33
2023-03-17T20:24:34.440Z,47.29
2023-03-17T20:29:38.644Z,46.92
2023-03-17T20:34:43.056Z,50.18
2023-03-17T20:39:45.931Z,53.11
2023-03-17T20:44:52.820Z,54.06
2023-03-17T20:49:58.733Z,53.75
2023-03-17T20:55:02.332Z,51.00
2023-03-17T21:00:08.172Z,49.85
2023-03-17T21:05:19.744Z,50.52
2023-03-17T21:10:22.518Z,49.04
2023-03-17T21:15:27.062Z,48.57
2023-03-17T21:20:30.234Z,48.06
2023-03-17T21:25:33.202Z,47.55
2023-03-17T21:30:37.931Z,46.42
2023-03-17T21:35:41.149Z,46.90
2023-03-17T21:40:44.097Z,46.55
2023-03-17T21:45:48.494Z,45.70
2023-03-17T21:50:51.320Z,45.40
2023-03-17T21:55:54.089Z,45.47
2023-03-17T22:01:00.259Z,46.93
2023-03-17T22:06:05.233Z,48.18
2023-03-17T22:11:09.731Z,49.02
2023-03-17T22:16:14.905Z,48.49
2023-03-17T22:21:17.919Z,49.37
2023-03-17T22:26:22.434Z,48.55
2023-03-17T22:31:28.561Z,48.54
2023-03-17T22:36:31.900Z,49.00
2023-03-17T22:41:34.603Z,48.76
2023-03-17T22:46:40.749Z,48.69
2023-03-17T22:51:43.544Z,48.69
2023-03-17T22:56:46.376Z,48.21
2023-03-17T23:01:50.413Z,48.30
2023-03-17T23:06:53.678Z,49.03
2023-03-17T23:11:56.443Z,48.35
2023-03-17T23:17:00.925Z,48.48
2023-03-17T23:22:03.657Z,48.71
2023-03-17T23:27:06.925Z,48.88
2023-03-17T23:32:12.656Z,51.48
2023-03-17T23:37:15.427Z,53.38
2023-03-17T23:42:18.306Z,54.43
2023-03-17T23:47:22.425Z,55.92
2023-03-17T23:52:25.639Z,57.84
2023-03-17T23:57:28.332Z,59.55
